createdAt,value
2018-08-16T00:01:13.856Z,95.50
2018-08-16T00:06:16.969Z,95.60
2018-08-16T00:11:20.001Z,95.60
2018-08-16T00:16:23.138Z,95.70
2018-08-16T00:21:26.265Z,95.80
2018-08-16T00:26:29.306Z,95.80
2018-08-16T00:31:32.345Z,96.00
2018-08-16T00:36:35.369Z,95.90
2018-08-16T00:41:38.417Z,96.00
2018-08-16T00:46:41.476Z,96.00
2018-08-16T00:51:44.509Z,96.00
2018-08-16T00:56:47.549Z,96.20
2018-08-16T01:01:50.596Z,96.20
2018-08-16T01:06:53.618Z,96.40
2018-08-16T01:11:56.656Z,96.40
2018-08-16T01:16:59.836Z,96.60
2018-08-16T01:22:02.868Z,96.80
2018-08-16T01:27:06.025Z,96.70
2018-08-16T01:32:09.216Z,96.90
2018-08-16T01:37:12.245Z,97.10
2018-08-16T01:42:15.295Z,97.30
2018-08-16T01:47:18.312Z,97.30
2018-08-16T01:52:21.328Z,97.50
2018-08-16T01:57:24.591Z,97.50
2018-08-16T02:02:27.604Z,97.70
2018-08-16T02:07:31.279Z,97.60
2018-08-16T02:12:34.366Z,97.80
2018-08-16T02:17:37.405Z,97.80
2018-08-16T02:22:41.075Z,97.90
2018-08-16T02:27:44.170Z,97.90
2018-08-16T02:32:47.176Z,98.00
2018-08-16T02:37:50.389Z,98.00
2018-08-16T02:42:53.721Z,98.00
2018-08-16T02:47:56.808Z,98.20
2018-08-16T02:52:59.828Z,98.30
2018-08-16T02:58:02.886Z,98.30
2018-08-16T03:03:05.904Z,98.40
2018-08-16T03:08:08.929Z,98.50
2018-08-16T03:13:11.948Z,98.40
2018-08-16T03:18:15.000Z,98.60
2018-08-16T03:23:18.116Z,98.70
2018-08-16T03:28:21.135Z,98.80
2018-08-16T03:33:24.153Z,98.90
2018-08-16T03:38:27.169Z,99.00
2018-08-16T03:43:30.185Z,99.10
2018-08-16T03:48:33.216Z,99.00
2018-08-16T03:53:36.269Z,99.10
2018-08-16T03:58:39.281Z,99.10
2018-08-16T04:03:42.287Z,99.20
2018-08-16T04:08:45.365Z,99.20
2018-08-16T04:13:48.572Z,99.30
2018-08-16T04:18:51.621Z,99.50
2018-08-16T04:23:54.635Z,99.40
2018-08-16T04:28:57.713Z,99.50
2018-08-16T04:34:00.692Z,99.30
2018-08-16T04:39:05.149Z,99.30
2018-08-16T04:44:08.155Z,99.10
2018-08-16T04:49:11.163Z,99.10
2018-08-16T04:54:14.169Z,99.20
2018-08-16T04:59:17.186Z,99.40
2018-08-16T05:04:20.231Z,98.90
2018-08-16T05:09:23.273Z,98.70
2018-08-16T05:14:26.266Z,98.60
2018-08-16T05:19:29.278Z,98.70
2018-08-16T05:24:32.329Z,98.40
2018-08-16T05:29:35.341Z,97.90
2018-08-16T05:34:38.345Z,97.90
2018-08-16T05:39:41.365Z,97.50
2018-08-16T05:44:44.381Z,96.90
2018-08-16T05:49:47.401Z,96.50
2018-08-16T05:54:50.911Z,96.20
2018-08-16T05:59:53.945Z,95.80
2018-08-16T06:04:58.707Z,95.40
2018-08-16T06:10:01.784Z,95.50
2018-08-16T06:15:05.451Z,95.30
2018-08-16T06:20:10.501Z,94.70
2018-08-16T06:25:14.131Z,94.30
2018-08-16T06:30:17.820Z,94.30
2018-08-16T06:35:21.017Z,94.30
2018-08-16T06:40:24.147Z,93.50
2018-08-16T06:45:27.711Z,93.40
2018-08-16T06:50:31.167Z,93.40
2018-08-16T06:55:34.256Z,93.30
2018-08-16T07:00:37.271Z,92.60
2018-08-16T07:05:40.803Z,92.80
2018-08-16T07:10:43.831Z,92.40
2018-08-16T07:15:46.913Z,92.00
2018-08-16T07:20:49.945Z,91.30
2018-08-16T07:25:52.979Z,90.90
2018-08-16T07:30:55.989Z,90.20
2018-08-16T07:35:59.000Z,90.30
2018-08-16T07:41:02.249Z,90.50
2018-08-16T07:46:05.402Z,90.00
2018-08-16T07:51:09.537Z,89.50
2018-08-16T07:56:12.640Z,89.00
2018-08-16T08:01:15.652Z,89.00
2018-08-16T08:06:19.252Z,87.70
2018-08-16T08:11:22.553Z,84.00
2018-08-16T08:16:25.585Z,84.60
2018-08-16T08:21:29.766Z,82.90
2018-08-16T08:26:32.820Z,83.70
2018-08-16T08:31:35.871Z,83.10
2018-08-16T08:36:50.712Z,81.40
2018-08-16T08:41:53.729Z,82.80
2018-08-16T08:46:57.407Z,78.90
2018-08-16T08:52:01.370Z,75.70
2018-08-16T08:57:16.490Z,76.20
2018-08-16T09:02:20.569Z,75.90
2018-08-16T09:07:24.815Z,72.70
2018-08-16T09:13:38.414Z,75.10
2018-08-16T09:18:41.480Z,70.00
2018-08-16T09:23:44.685Z,67.50
2018-08-16T09:28:47.726Z,67.00
2018-08-16T09:34:02.456Z,62.40
2018-08-16T09:39:07.516Z,56.90
2018-08-16T09:44:10.593Z,58.10
2018-08-16T09:49:13.912Z,56.90
2018-08-16T09:54:16.936Z,56.50
2018-08-16T09:59:20.129Z,56.80
2018-08-16T10:04:23.139Z,55.70
2018-08-16T10:09:27.356Z,54.90
2018-08-16T10:14:30.475Z,53.10
2018-08-16T10:19:33.502Z,51.30
2018-08-16T10:24:36.559Z,52.00
2018-08-16T10:29:39.575Z,51.70
2018-08-16T10:34:42.587Z,53.20
2018-08-16T10:39:45.586Z,52.40
2018-08-16T10:44:48.675Z,52.60
2018-08-16T10:49:51.693Z,50.70
2018-08-16T10:54:55.315Z,52.00
2018-08-16T10:59:58.324Z,49.80
2018-08-16T11:05:01.355Z,51.20
2018-08-16T11:10:04.777Z,50.50
2018-08-16T11:15:09.447Z,50.60
2018-08-16T11:20:16.143Z,48.90
2018-08-16T11:25:20.172Z,49.20
2018-08-16T11:30:23.188Z,47.80
2018-08-16T11:35:26.275Z,46.80
2018-08-16T11:40:29.353Z,47.70
2018-08-16T11:45:32.388Z,46.20
2018-08-16T11:50:35.424Z,46.80
2018-08-16T11:55:38.496Z,47.10
2018-08-16T12:00:41.531Z,46.50
2018-08-16T12:05:44.656Z,46.40
2018-08-16T12:10:47.684Z,46.50
2018-08-16T12:15:50.801Z,43.50
2018-08-16T12:20:53.856Z,45.10
2018-08-16T12:25:57.383Z,46.00
2018-08-16T12:31:00.492Z,45.00
2018-08-16T12:36:03.539Z,44.80
2018-08-16T12:41:06.800Z,43.90
2018-08-16T12:46:09.860Z,43.00
2018-08-16T12:51:12.960Z,42.80
2018-08-16T12:56:16.042Z,43.30
2018-08-16T13:01:19.168Z,42.00
2018-08-16T13:06:22.247Z,41.80
2018-08-16T13:11:25.298Z,41.60
2018-08-16T13:16:28.329Z,42.70
2018-08-16T13:21:31.383Z,41.80
2018-08-16T13:26:34.388Z,40.90
2018-08-16T13:31:37.495Z,40.30
2018-08-16T13:36:40.600Z,41.10
2018-08-16T13:41:43.620Z,41.40
2018-08-16T13:46:46.693Z,40.80
2018-08-16T13:51:49.717Z,39.80
2018-08-16T13:56:52.725Z,39.20
2018-08-16T14:01:55.758Z,39.30
2018-08-16T14:06:58.864Z,39.00
2018-08-16T14:12:01.917Z,38.20
2018-08-16T14:17:05.537Z,37.80
2018-08-16T14:22:08.551Z,39.30
2018-08-16T14:27:11.569Z,38.00
2018-08-16T14:32:14.640Z,38.50
2018-08-16T14:37:17.642Z,38.50
2018-08-16T14:42:20.685Z,38.20
2018-08-16T14:47:24.176Z,37.50
2018-08-16T14:52:27.188Z,38.10
2018-08-16T14:57:30.201Z,37.40
2018-08-16T15:02:33.258Z,36.70
2018-08-16T15:07:36.288Z,36.90
2018-08-16T15:12:39.341Z,37.40
2018-08-16T15:17:42.384Z,37.80
2018-08-16T15:22:45.404Z,37.00
2018-08-16T15:27:48.491Z,37.30
2018-08-16T15:32:51.498Z,37.10
2018-08-16T15:37:54.534Z,37.30
2018-08-16T15:42:57.552Z,37.50
2018-08-16T15:48:00.679Z,36.40
2018-08-16T15:53:03.704Z,36.70
2018-08-16T15:58:07.031Z,37.10
2018-08-16T16:03:10.094Z,37.10
2018-08-16T16:08:13.116Z,38.10
2018-08-16T16:13:16.145Z,38.90
2018-08-16T16:18:19.173Z,37.30
2018-08-16T16:23:22.188Z,37.00
2018-08-16T16:28:25.290Z,36.90
2018-08-16T16:33:28.404Z,37.30
2018-08-16T16:38:31.455Z,36.40
2018-08-16T16:43:34.499Z,37.10
2018-08-16T16:48:37.537Z,36.90
2018-08-16T16:53:40.724Z,36.90
2018-08-16T16:58:44.227Z,36.20
2018-08-16T17:03:47.388Z,36.90
2018-08-16T17:08:50.416Z,37.40
2018-08-16T17:13:53.715Z,37.60
2018-08-16T17:18:56.762Z,37.80
2018-08-16T17:24:00.132Z,38.00
2018-08-16T17:29:03.146Z,38.20
2018-08-16T17:34:06.153Z,39.60
2018-08-16T17:39:09.176Z,40.20
2018-08-16T17:44:12.340Z,40.70
2018-08-16T17:49:15.410Z,41.40
2018-08-16T17:54:18.623Z,42.10
2018-08-16T17:59:21.725Z,42.40
2018-08-16T18:04:24.755Z,42.60
2018-08-16T18:09:27.750Z,43.30
2018-08-16T18:14:30.827Z,43.70
2018-08-16T18:19:33.844Z,44.10
2018-08-16T18:24:36.956Z,47.00
2018-08-16T18:29:39.957Z,46.90
2018-08-16T18:34:42.982Z,47.20
2018-08-16T18:39:45.997Z,47.80
2018-08-16T18:44:49.530Z,48.00
2018-08-16T18:49:52.723Z,48.30
2018-08-16T18:54:55.916Z,48.60
2018-08-16T18:59:58.941Z,49.10
2018-08-16T19:05:02.011Z,49.40
2018-08-16T19:10:06.025Z,49.80
2018-08-16T19:15:09.123Z,50.20
2018-08-16T19:20:12.158Z,50.60
2018-08-16T19:25:15.176Z,51.10
2018-08-16T19:30:19.542Z,51.10
2018-08-16T19:35:22.558Z,51.80
2018-08-16T19:40:25.562Z,51.70
2018-08-16T19:45:29.549Z,52.00
2018-08-16T19:50:32.593Z,51.90
2018-08-16T19:55:37.347Z,52.30
2018-08-16T20:00:40.429Z,52.80
2018-08-16T20:05:43.563Z,52.60
2018-08-16T20:10:46.609Z,52.40
2018-08-16T20:15:50.048Z,52.90
2018-08-16T20:20:53.077Z,53.10
2018-08-16T20:25:56.166Z,53.50
2018-08-16T20:30:59.196Z,53.50
2018-08-16T20:36:02.316Z,53.70
2018-08-16T20:41:05.328Z,54.00
2018-08-16T20:46:08.613Z,54.00
2018-08-16T20:51:11.637Z,54.70
2018-08-16T20:56:14.932Z,54.60
2018-08-16T21:01:17.950Z,54.50
2018-08-16T21:06:21.028Z,54.60
2018-08-16T21:11:24.232Z,54.60
2018-08-16T21:16:27.244Z,54.50
2018-08-16T21:21:32.166Z,54.80
2018-08-16T21:26:35.332Z,54.50
2018-08-16T21:31:38.376Z,54.80
2018-08-16T21:36:41.411Z,54.70
2018-08-16T21:41:44.445Z,54.90
2018-08-16T21:46:47.471Z,54.90
2018-08-16T21:51:50.528Z,55.00
2018-08-16T21:56:53.556Z,54.90
2018-08-16T22:01:56.567Z,55.00
2018-08-16T22:07:05.452Z,54.90
2018-08-16T22:12:08.470Z,54.60
2018-08-16T22:17:11.502Z,55.10
2018-08-16T22:22:14.524Z,55.00
2018-08-16T22:27:17.547Z,55.10
2018-08-16T22:32:20.568Z,55.20
2018-08-16T22:37:23.579Z,55.40
2018-08-16T22:42:26.751Z,55.20
2018-08-16T22:47:30.681Z,55.60
2018-08-16T22:52:33.727Z,55.50
2018-08-16T22:57:36.807Z,56.00
2018-08-16T23:02:40.121Z,55.90
2018-08-16T23:07:43.151Z,56.00
2018-08-16T23:12:46.180Z,56.20
2018-08-16T23:17:49.263Z,56.50
2018-08-16T23:22:52.287Z,56.50
2018-08-16T23:27:55.290Z,57.00
2018-08-16T23:32:58.300Z,56.60
2018-08-16T23:38:01.310Z,56.70
2018-08-16T23:43:04.346Z,56.80
2018-08-16T23:48:18.961Z,57.20
2018-08-16T23:53:21.985Z,57.70
2018-08-16T23:58:25.010Z,57.40
